Pella, IA

8:38 AM CST on November 20, 2017 (GMT -0600)
Pella Municipal

Weather History for KPEA - May, 2013

Change the Weather History Date:

Friday, May 3, 2013

  Actual Average (KOXV) Record (KOXV)
Temperature  
Mean Temperature 34 °F -  
Max Temperature 36 °F 68 °F 87 °F (1949)
Min Temperature 32 °F 46 °F 30 °F (1976)
Degree Days  
Heating Degree Days 31    
Moisture  
Dew Point 32 °F    
Average Humidity 93    
Maximum Humidity 96    
Minimum Humidity 84    
Precipitation  
Precipitation 0.08 in - - ()
Sea Level Pressure  
Sea Level Pressure 30.09 in    
Wind  
Wind Speed 12 mph (North)    
Max Wind Speed 20 mph    
Max Gust Speed 25 mph    
Visibility 5 miles    
Events Rain , Snow    
Averages and records for this station are not official NWS values.
T = Trace of Precipitation, MM = Missing Value Source: NWS Daily Summary

Daily Weather History Graph

Daily Weather History Graph

Search for Another Location

Airport or City:

Trip Planner

Search our weather history database for the weather conditions in past years. The results will help you decide how hot, cold, wet, or windy it might be!

Date:

Astronomy

May. 03, 2013 Rise Set
Actual Time 6:06 AM CDT 8:11 PM CDT
Civil Twilight 5:35 AM CDT 8:42 PM CDT
Nautical Twilight 4:58 AM CDT 9:19 PM CDT
Astronomical Twilight 4:18 AM CDT 10:00 PM CDT
Moon 2:35 AM CDT (5/3) 2:02 PM CDT (5/3)
Length of Visible Light 15h 06m
Length of Day
14h 05m
Last Quarter, 37% of the Moon is Illuminated
May 3
Last Quarter
May 9
New
May 17
First Quarter
May 24
Full
May 31
Last Quarter

Hourly Weather History & Observations

Time (CDT) Temp. Windchill Dew Point Humidity Pressure Visibility Wind Dir Wind Speed Gust Speed Precip Events Conditions
12:15 AM 33.6 °F 24.1 °F 32.5 °F 96% 30.31 in 3.0 mi North 13.8 mph 18.4 mph N/A Snow Light Snow
12:35 AM 33.6 °F 24.6 °F 32.4 °F 95% 30.29 in 3.0 mi North 12.7 mph 19.6 mph N/A Snow Light Snow
12:55 AM 33.4 °F 25.4 °F 32.4 °F 96% 30.28 in 2.0 mi North 10.4 mph 19.6 mph N/A Snow Light Snow
1:15 AM 33.3 °F 24.1 °F 32.2 °F 96% 30.26 in 2.5 mi North 12.7 mph 19.6 mph N/A Snow Light Snow
1:35 AM 33.4 °F 23.9 °F 32.4 °F 96% 30.24 in 3.0 mi North 13.8 mph 20.7 mph N/A Snow Light Snow
1:55 AM 33.3 °F 24.1 °F 32.2 °F 96% 30.25 in 2.5 mi North 12.7 mph 18.4 mph N/A Snow Light Snow
2:15 AM 33.3 °F 25.1 °F 32.2 °F 96% 30.23 in 1.5 mi North 10.4 mph 17.3 mph N/A Snow Light Snow
2:35 AM 33.3 °F 24.1 °F 32.2 °F 96% 30.22 in 2.0 mi North 12.7 mph 18.4 mph N/A Snow Light Snow
2:55 AM 33.3 °F 24.6 °F 32.2 °F 96% 30.20 in 3.0 mi North 11.5 mph 18.4 mph N/A Snow Light Snow
3:15 AM 33.4 °F 24.3 °F 32.4 °F 96% 30.20 in 3.0 mi North 12.7 mph 20.7 mph N/A Snow Light Snow
3:35 AM 33.4 °F 24.8 °F 32.2 °F 95% 30.21 in 3.0 mi North 11.5 mph 19.6 mph N/A Snow Light Snow
3:55 AM 33.3 °F 24.1 °F 32.0 °F 95% 30.19 in 4.0 mi North 12.7 mph 19.6 mph N/A Snow Light Snow
4:15 AM 33.3 °F 25.7 °F 32.0 °F 95% 30.19 in 4.0 mi North 9.2 mph 17.3 mph N/A Snow Light Snow
4:35 AM 33.3 °F 24.6 °F 32.0 °F 95% 30.19 in 2.0 mi North 11.5 mph 19.6 mph N/A Snow Light Snow
4:55 AM 33.1 °F 24.9 °F 32.0 °F 96% 30.19 in 1.5 mi North 10.4 mph - 0.01 in Snow Light Snow
5:15 AM 32.9 °F 25.3 °F 32.0 °F 96% 30.19 in 1.5 mi North 9.2 mph - 0.01 in Snow Light Snow
5:35 AM 32.9 °F 25.3 °F 32.0 °F 96% 30.18 in 1.2 mi North 9.2 mph 16.1 mph 0.01 in Snow Light Snow
5:55 AM 32.9 °F 24.7 °F 32.0 °F 96% 30.19 in 1.0 mi North 10.4 mph - 0.02 in Snow Light Snow
6:15 AM 32.9 °F 24.7 °F 32.0 °F 96% 30.18 in 1.0 mi North 10.4 mph 16.1 mph N/A Snow Light Snow
6:35 AM 32.9 °F 25.3 °F 32.0 °F 96% 30.18 in 1.0 mi North 9.2 mph - 0.01 in Snow Snow
6:55 AM 32.9 °F 24.7 °F 32.0 °F 96% 30.16 in 0.5 mi North 10.4 mph 16.1 mph 0.01 in Snow Snow
7:15 AM 32.9 °F 24.1 °F 32.0 °F 96% 30.16 in 0.5 mi North 11.5 mph - N/A Snow Snow
7:35 AM 32.9 °F 24.7 °F 32.0 °F 96% 30.14 in 0.8 mi North 10.4 mph - 0.02 in Snow Light Snow
7:55 AM 32.9 °F 23.7 °F 32.0 °F 96% 30.14 in 1.2 mi North 12.7 mph 16.1 mph 0.02 in Snow Light Snow
8:15 AM 33.1 °F 24.4 °F 32.0 °F 96% 30.14 in 5.0 mi North 11.5 mph 17.3 mph N/A Snow Light Snow
8:35 AM 33.4 °F 24.3 °F 32.0 °F 94% 30.14 in 4.0 mi North 12.7 mph - N/A Snow Light Snow
8:55 AM 33.6 °F 25.6 °F 32.0 °F 94% 30.14 in 1.8 mi NNW 10.4 mph 17.3 mph N/A Snow Light Snow
9:15 AM 33.8 °F 25.3 °F 32.0 °F 93% 30.14 in 1.5 mi North 11.5 mph - N/A Snow Light Snow
9:35 AM 33.8 °F 26.4 °F 32.0 °F 93% 30.14 in 2.5 mi NNW 9.2 mph - N/A Snow Light Snow
9:55 AM 34.0 °F 26.6 °F 32.0 °F 92% 30.13 in 1.2 mi North 9.2 mph - N/A   Overcast
10:15 AM 33.8 °F 24.3 °F 32.0 °F 93% 30.12 in 1.2 mi NNW 13.8 mph - N/A   Overcast
10:35 AM 34.3 °F 25.5 °F 32.0 °F 91% 30.11 in 2.0 mi North 12.7 mph - N/A   Overcast
10:55 AM 34.7 °F 25.9 °F 32.0 °F 90% 30.10 in 5.0 mi NNW 12.7 mph 17.3 mph N/A   Overcast
11:15 AM 35.1 °F 27.4 °F 32.0 °F 89% 30.10 in 10.0 mi North 10.4 mph 17.3 mph N/A   Overcast
11:35 AM 35.1 °F 27.4 °F 32.0 °F 89% 30.10 in 10.0 mi North 10.4 mph 19.6 mph N/A   Overcast
11:55 AM 35.1 °F 27.4 °F 32.0 °F 89% 30.10 in 10.0 mi North 10.4 mph 16.1 mph N/A   Overcast
12:15 PM 35.1 °F 26.4 °F 31.8 °F 88% 30.09 in 10.0 mi North 12.7 mph 19.6 mph N/A   Overcast
12:35 PM 35.1 °F 25.9 °F 31.6 °F 87% 30.08 in 10.0 mi North 13.8 mph 19.6 mph N/A   Overcast
12:55 PM 35.1 °F 26.9 °F 31.8 °F 88% 30.08 in 10.0 mi NNW 11.5 mph 17.3 mph N/A   Overcast
1:15 PM 35.1 °F 27.4 °F 31.6 °F 87% 30.07 in 10.0 mi North 10.4 mph 19.6 mph N/A   Light Drizzle
1:35 PM 35.1 °F 26.9 °F 31.8 °F 88% 30.08 in 10.0 mi North 11.5 mph 16.1 mph N/A   Light Drizzle
1:55 PM 35.2 °F 26.2 °F 31.8 °F 87% 30.06 in 10.0 mi NNW 13.8 mph 17.3 mph N/A   Overcast
2:15 PM 35.8 °F 26.5 °F 31.8 °F 86% 30.05 in 10.0 mi North 15.0 mph 18.4 mph N/A   Overcast
2:35 PM 36.3 °F 27.5 °F 32.0 °F 84% 30.06 in 10.0 mi North 13.8 mph - N/A   Overcast
2:55 PM 35.8 °F 27.3 °F 32.0 °F 86% 30.06 in 10.0 mi North 12.7 mph 16.1 mph N/A Rain Light Rain
3:15 PM 35.6 °F 26.2 °F 32.0 °F 87% 30.04 in 10.0 mi NNW 15.0 mph 20.7 mph N/A   Light Drizzle
3:35 PM 35.6 °F 26.6 °F 32.0 °F 87% 30.04 in 10.0 mi NNW 13.8 mph 19.6 mph N/A   Light Drizzle
3:55 PM 35.4 °F 26.0 °F 32.0 °F 87% 30.02 in 10.0 mi North 15.0 mph 19.6 mph N/A   Overcast
4:15 PM 35.4 °F 25.6 °F 32.0 °F 87% 30.03 in 7.0 mi NNW 16.1 mph - N/A Rain Light Rain
4:35 PM 34.9 °F 23.9 °F 32.0 °F 89% 30.00 in 5.0 mi NNW 19.6 mph 24.2 mph N/A Rain Light Rain
4:55 PM 34.9 °F 26.2 °F 32.0 °F 89% 30.01 in 7.0 mi North 12.7 mph 21.9 mph N/A Rain Light Rain
5:15 PM 34.7 °F 26.9 °F 32.2 °F 91% 30.02 in 7.0 mi North 10.4 mph 16.1 mph N/A Rain Light Rain
5:35 PM 34.9 °F 25.3 °F 32.4 °F 91% 30.01 in 10.0 mi North 15.0 mph - N/A Rain Light Rain
5:55 PM 34.7 °F 25.9 °F 32.2 °F 91% 30.01 in 10.0 mi North 12.7 mph 19.6 mph N/A Rain Light Rain
6:15 PM 34.7 °F 26.4 °F 32.4 °F 91% 30.03 in 10.0 mi NNW 11.5 mph - N/A   Light Drizzle
6:35 PM 34.7 °F 25.9 °F 32.2 °F 91% 30.00 in 10.0 mi North 12.7 mph 20.7 mph N/A   Overcast
6:55 PM 34.7 °F 25.1 °F 32.2 °F 91% 30.00 in 10.0 mi NNW 15.0 mph 18.4 mph N/A   Overcast
7:15 PM 34.5 °F 25.7 °F 32.4 °F 92% 30.00 in 10.0 mi NNW 12.7 mph - N/A   Light Drizzle
7:35 PM 34.3 °F 25.9 °F 32.4 °F 92% 30.01 in 10.0 mi North 11.5 mph - N/A   Overcast
7:55 PM 34.2 °F 24.8 °F 32.4 °F 93% 30.00 in 4.0 mi North 13.8 mph 19.6 mph N/A Rain Light Rain
8:15 PM 34.2 °F 25.7 °F 32.5 °F 94% 29.99 in 4.0 mi North 11.5 mph 17.3 mph N/A Rain Light Rain
8:35 PM 34.0 °F 24.6 °F 32.7 °F 95% 29.99 in 5.0 mi North 13.8 mph - N/A Rain Rain
8:55 PM 34.2 °F 24.4 °F 32.7 °F 94% 29.97 in 5.0 mi North 15.0 mph 21.9 mph N/A Rain Rain
9:15 PM 34.2 °F 24.8 °F 32.9 °F 95% 29.97 in 5.0 mi North 13.8 mph 23.0 mph N/A Rain Light Rain
9:35 PM 34.2 °F 25.7 °F 32.9 °F 95% 29.97 in 5.0 mi North 11.5 mph 23.0 mph N/A Rain Light Rain
9:55 PM 34.3 °F 25.0 °F 32.9 °F 94% 29.96 in 5.0 mi North 13.8 mph 25.3 mph N/A Rain Rain
10:15 PM 34.3 °F 26.5 °F 33.1 °F 95% 29.97 in 5.0 mi North 10.4 mph 17.3 mph 0.01 in Rain Rain
10:35 PM 34.3 °F 24.6 °F 33.1 °F 95% 29.95 in 4.0 mi North 15.0 mph 20.7 mph 0.01 in   Overcast
10:55 PM 34.5 °F 23.8 °F 33.1 °F 94% 29.93 in 5.0 mi North 18.4 mph 21.9 mph 0.02 in Rain Rain
11:15 PM 34.7 °F 26.9 °F 33.3 °F 94% 29.95 in 5.0 mi NNW 10.4 mph 18.4 mph N/A Rain Light Rain
11:35 PM 34.7 °F 25.5 °F 33.3 °F 94% 29.93 in 4.0 mi North 13.8 mph 18.4 mph N/A Rain Light Rain
11:55 PM 34.7 °F 26.9 °F 33.4 °F 95% 29.93 in 5.0 mi NNW 10.4 mph - N/A Rain Light Rain